Time;durP1;ratioP1;P1;durP2;ratioP2;P2;SDS_P1;SDS_P2;PMS_P1;PMS_P2;Temp;Humidity;BMP_temperature;BMP_pressure;BME280_temperature;BME280_humidity;BME280_pressure;Samples;Min_cycle;Max_cycle;Signal;HPM_P1;HPM_P2
2022/10/03 00:01:28;;;;;;;2.52;2.33;;;;;;;7.51;97.97;98163.42;1733209;82;21050;-80
2022/10/03 00:04:16;;;;;;;2.12;1.92;;;;;;;7.47;97.99;98168.26;1735515;82;21413;-81
2022/10/03 00:06:56;;;;;;;2.00;1.80;;;;;;;7.48;97.88;98169.40;1733204;82;21096;-81
2022/10/03 00:10:00;;;;;;;3.72;2.37;;;;;;;7.49;97.73;98166.24;1734724;82;21204;-81
2022/10/03 00:12:47;;;;;;;2.85;2.52;;;;;;;7.53;97.85;98162.22;1711373;82;21055;-81
2022/10/03 00:15:31;;;;;;;2.75;2.37;;;;;;;7.53;98.04;98156.13;1724588;81;21048;-81
2022/10/03 00:18:11;;;;;;;2.77;2.15;;;;;;;7.52;97.87;98150.54;1681773;83;24539;-81
2022/10/03 00:20:54;;;;;;;3.72;2.62;;;;;;;7.56;97.91;98148.64;1733822;82;21105;-81
2022/10/03 00:23:45;;;;;;;3.02;2.60;;;;;;;7.54;97.16;98144.05;1728612;82;21038;-82
2022/10/03 00:26:50;;;;;;;3.62;3.00;;;;;;;7.57;97.48;98145.01;1714332;82;21077;-79
2022/10/03 00:29:25;;;;;;;3.35;2.90;;;;;;;7.60;96.31;98139.84;1677639;84;21097;-80
2022/10/03 00:32:10;;;;;;;2.72;2.50;;;;;;;7.59;95.77;98141.67;1703391;84;21159;-81
2022/10/03 00:35:05;;;;;;;3.42;3.00;;;;;;;7.56;96.69;98142.03;1721952;81;21062;-80
2022/10/03 00:37:42;;;;;;;4.12;2.98;;;;;;;7.62;97.01;98144.44;1696187;82;21009;-82
2022/10/03 00:40:32;;;;;;;3.95;3.50;;;;;;;7.58;96.71;98143.98;1728775;81;21087;-81
2022/10/03 00:43:16;;;;;;;3.90;3.50;;;;;;;7.62;97.07;98136.50;1714174;82;21032;-82
2022/10/03 00:46:31;;;;;;;5.47;2.95;;;;;;;7.64;96.50;98134.48;1717509;82;21149;-82
2022/10/03 00:49:35;;;;;;;3.67;3.20;;;;;;;7.61;97.14;98132.21;1733379;81;21547;-81
2022/10/03 00:52:36;;;;;;;4.00;3.60;;;;;;;7.63;96.53;98130.20;1703049;84;21608;-81
2022/10/03 00:55:36;;;;;;;4.42;3.02;;;;;;;7.62;96.00;98133.35;1710988;83;21048;-82
2022/10/03 00:58:42;;;;;;;3.67;3.20;;;;;;;7.61;96.12;98119.84;1707908;83;21116;-81
2022/10/03 01:01:33;;;;;;;3.37;3.08;;;;;;;7.63;95.95;98127.07;1694521;84;21082;-81
2022/10/03 01:04:25;;;;;;;3.45;3.15;;;;;;;7.69;95.97;98134.75;1695011;82;21025;-82
2022/10/03 01:07:12;;;;;;;3.75;3.22;;;;;;;7.66;96.00;98132.47;1678134;84;21053;-81
2022/10/03 01:10:08;;;;;;;3.92;3.17;;;;;;;7.65;95.63;98129.02;1704854;82;21581;-82
2022/10/03 01:12:49;;;;;;;3.50;3.20;;;;;;;7.71;95.96;98130.09;1720254;81;21033;-82
2022/10/03 01:15:45;;;;;;;4.47;3.12;;;;;;;7.73;96.19;98132.55;1737793;81;21135;-82
2022/10/03 01:18:42;;;;;;;5.65;3.50;;;;;;;7.72;96.00;98125.11;1724850;82;21108;-81
2022/10/03 01:21:40;;;;;;;3.35;2.80;;;;;;;7.73;96.24;98126.76;1739246;81;21563;-81
2022/10/03 01:24:31;;;;;;;3.85;3.33;;;;;;;7.73;96.82;98124.11;1722274;81;21592;-82
2022/10/03 01:27:05;;;;;;;4.53;3.02;;;;;;;7.73;97.46;98128.59;1726878;82;21115;-83
2022/10/03 01:33:15;;;;;;;3.62;3.00;;;;;;;7.66;97.19;98124.03;1743964;81;21055;-83
2022/10/03 01:35:58;;;;;;;3.85;2.98;;;;;;;7.68;97.17;98131.78;1736350;81;21063;-82
2022/10/03 01:38:48;;;;;;;3.47;3.17;;;;;;;7.70;97.42;98134.24;1744126;81;21129;-84
2022/10/03 01:41:44;;;;;;;3.10;2.80;;;;;;;7.66;97.47;98134.61;1723902;82;21076;-80
2022/10/03 01:44:39;;;;;;;3.55;3.22;;;;;;;7.66;98.05;98126.67;1732062;81;21769;-82
2022/10/03 01:47:33;;;;;;;6.30;3.60;;;;;;;7.66;100.00;98129.32;1703667;82;21242;-82
2022/10/03 01:50:07;;;;;;;;;;;;;;;7.64;100.00;98122.08;1727711;81;21221;-84
2022/10/03 01:52:39;;;;;;;;;;;;;;;7.65;100.00;98121.61;1736101;79;20163;-83
2022/10/03 01:55:28;;;;;;;4.22;3.40;;;;;;;7.66;100.00;98129.32;1742423;81;20191;-84
2022/10/03 01:58:22;;;;;;;6.00;3.27;;;;;;;7.68;100.00;98126.50;1722325;82;21108;-81
2022/10/03 02:01:13;;;;;;;3.55;3.20;;;;;;;7.71;100.00;98124.81;1700064;81;21155;-83
2022/10/03 02:03:51;;;;;;;3.72;3.40;;;;;;;7.73;99.82;98127.27;1735861;82;21044;-83
2022/10/03 02:06:58;;;;;;;3.05;2.67;;;;;;;7.70;99.70;98118.38;1738400;81;21477;-80
2022/10/03 02:09:31;;;;;;;3.83;3.30;;;;;;;7.68;99.13;98123.34;1738786;82;21111;-79
2022/10/03 02:12:03;;;;;;;3.75;3.27;;;;;;;7.72;99.70;98125.62;1738856;81;21580;-81
2022/10/03 02:14:50;;;;;;;4.22;3.05;;;;;;;7.74;99.76;98122.28;1748109;81;21006;-80
2022/10/03 02:17:44;;;;;;;4.58;3.37;;;;;;;7.74;99.53;98129.70;1700632;83;21120;-79
2022/10/03 02:20:22;;;;;;;4.28;3.77;;;;;;;7.72;99.74;98125.11;1684507;83;20974;-81
2022/10/03 02:22:53;;;;;;;3.30;3.00;;;;;;;7.76;99.54;98117.11;1664129;84;21055;-81
2022/10/03 02:26:09;;;;;;;3.87;3.25;;;;;;;7.77;99.52;98117.44;1694473;82;21105;-81
2022/10/03 02:29:05;;;;;;;3.67;3.27;;;;;;;7.77;99.71;98120.59;1706533;82;21041;-81
2022/10/03 02:31:57;;;;;;;3.58;3.27;;;;;;;7.79;99.23;98122.54;1693202;82;21020;-83
2022/10/03 02:34:43;;;;;;;4.47;3.22;;;;;;;7.78;99.47;98125.66;1679620;82;21101;-81
2022/10/03 02:37:26;;;;;;;3.67;3.08;;;;;;;7.80;99.34;98126.80;1711570;82;21563;-82
2022/10/03 02:40:33;;;;;;;5.15;3.87;;;;;;;7.79;99.20;98124.67;1706304;83;21642;-81
2022/10/03 02:43:30;;;;;;;3.90;3.05;;;;;;;7.79;99.31;98129.15;1676700;84;21068;-79
2022/10/03 02:46:41;;;;;;;5.87;2.75;;;;;;;7.79;99.36;98117.25;1699789;84;21080;-83
2022/10/03 02:49:57;;;;;;;3.25;2.95;;;;;;;7.77;99.68;98114.79;1708184;84;21091;-78
2022/10/03 02:52:58;;;;;;;2.62;2.42;;;;;;;7.78;99.70;98116.41;1655076;84;21045;-79
2022/10/03 02:55:47;;;;;;;3.33;3.02;;;;;;;7.82;99.52;98110.24;1717026;83;21135;-82
2022/10/03 02:58:48;;;;;;;3.58;2.90;;;;;;;7.81;99.01;98116.55;1707074;84;21073;-80
2022/10/03 03:01:42;;;;;;;3.55;2.80;;;;;;;7.82;99.08;98115.53;1707932;82;21084;-82
2022/10/03 03:04:40;;;;;;;4.53;2.92;;;;;;;7.80;97.96;98110.46;1702558;82;21072;-82
2022/10/03 03:07:29;;;;;;;3.75;2.95;;;;;;;7.82;98.40;98108.92;1609152;87;21067;-81
2022/10/03 03:10:36;;;;;;;5.42;2.55;;;;;;;7.83;98.61;98106.61;1623724;87;21253;-81
2022/10/03 03:13:25;;;;;;;3.67;3.35;;;;;;;7.84;98.52;98112.19;1678964;83;21399;-80
2022/10/03 03:19:16;;;;;;;3.87;3.12;;;;;;;7.85;98.61;98113.84;1882859;74;26960;-79
2022/10/03 03:22:24;;;;;;;3.77;2.83;;;;;;;7.82;98.83;98114.21;1812707;77;21474;-80
2022/10/03 03:25:00;;;;;;;4.70;3.47;;;;;;;7.83;98.18;98101.32;1727397;80;21163;-80
2022/10/03 03:27:45;;;;;;;3.37;2.83;;;;;;;7.86;98.69;98104.89;1786499;79;21103;-79
2022/10/03 03:30:20;;;;;;;3.50;3.20;;;;;;;7.90;98.91;98103.52;1785164;76;20963;-81
2022/10/03 03:33:19;;;;;;;3.70;3.00;;;;;;;7.86;97.64;98103.56;1856415;77;20975;-79
2022/10/03 03:36:11;;;;;;;4.20;3.40;;;;;;;7.83;98.28;98097.36;1836964;77;21642;-81
2022/10/03 03:39:35;;;;;;;4.25;3.37;;;;;;;7.85;97.90;98094.82;1852823;76;21126;-78
2022/10/03 03:42:28;;;;;;;5.33;3.45;;;;;;;7.84;97.93;98095.01;1836435;76;22263;-78
2022/10/03 03:45:17;;;;;;;3.47;3.17;;;;;;;7.80;98.07;98099.89;1820056;77;21223;-79
2022/10/03 03:48:11;;;;;;;3.72;3.12;;;;;;;7.82;98.43;98102.31;1852623;75;21073;-78
2022/10/03 03:50:55;;;;;;;;;;;;;;;7.81;98.64;98107.30;1846997;77;21856;-81
2022/10/03 03:53:45;;;;;;;5.67;3.90;;;;;;;7.80;98.68;98105.17;1821271;77;21703;-80
2022/10/03 03:56:37;;;;;;;4.97;3.33;;;;;;;7.77;99.13;98103.41;1819623;78;21070;-81
2022/10/03 03:59:15;;;;;;;5.65;4.37;;;;;;;7.76;99.48;98105.72;1829098;75;21025;-78
2022/10/03 04:02:11;;;;;;;4.03;3.40;;;;;;;7.71;99.44;98101.50;1850497;76;20963;-82
2022/10/03 04:04:48;;;;;;;4.78;3.60;;;;;;;7.71;99.88;98095.73;1843209;77;21035;-82
2022/10/03 04:07:29;;;;;;;4.03;3.62;;;;;;;7.74;99.78;98097.98;1856552;77;21609;-81
2022/10/03 04:10:26;;;;;;;4.03;3.70;;;;;;;7.70;100.00;98099.37;1828890;77;21494;-79
2022/10/03 04:13:19;;;;;;;3.75;3.37;;;;;;;7.73;100.00;98107.44;1837881;77;20955;-82
2022/10/03 04:16:07;;;;;;;4.10;3.63;;;;;;;7.75;100.00;98103.59;1858713;75;20979;-80
2022/10/03 04:19:09;;;;;;;4.30;3.70;;;;;;;7.75;100.00;98100.14;1836765;77;21030;-84
2022/10/03 04:22:19;;;;;;;4.75;4.17;;;;;;;7.75;100.00;98102.78;1770094;79;21762;-83
2022/10/03 04:25:38;;;;;;;5.15;3.87;;;;;;;7.68;100.00;98094.27;1779914;80;21002;-83
2022/10/03 04:28:33;;;;;;;4.55;3.27;;;;;;;7.67;100.00;98093.16;1852161;75;21589;-80
2022/10/03 04:31:40;;;;;;;3.40;3.10;;;;;;;7.63;100.00;98091.39;1847787;75;21033;-82
2022/10/03 04:34:44;;;;;;;3.55;3.22;;;;;;;7.62;100.00;98096.86;1840220;75;20984;-83
2022/10/03 04:37:23;;;;;;;7.40;3.33;;;;;;;7.61;100.00;98095.21;1847089;76;21076;-81
2022/10/03 04:40:28;;;;;;;3.00;2.70;;;;;;;7.62;100.00;98096.35;1853431;77;20995;-84
2022/10/03 04:43:11;;;;;;;3.47;2.75;;;;;;;7.66;100.00;98102.89;1845529;75;20983;-83
2022/10/03 04:46:15;;;;;;;4.00;3.20;;;;;;;7.69;100.00;98089.82;1844854;75;21045;-83
2022/10/03 04:49:00;;;;;;;2.95;2.55;;;;;;;7.67;100.00;98097.93;1844413;75;21053;-82
2022/10/03 04:51:38;;;;;;;3.30;2.98;;;;;;;7.68;100.00;98087.66;1827863;77;21935;-80
2022/10/03 04:54:16;;;;;;;3.67;2.62;;;;;;;7.68;100.00;98084.20;1850569;75;21001;-81
2022/10/03 04:56:52;;;;;;;3.62;2.87;;;;;;;7.72;100.00;98092.06;1845889;75;21074;-78
2022/10/03 04:59:39;;;;;;;3.25;2.95;;;;;;;7.74;100.00;98098.48;1848907;75;21115;-79
2022/10/03 05:02:36;;;;;;;4.85;2.83;;;;;;;7.73;100.00;98101.64;1838910;75;21018;-83
2022/10/03 05:05:36;;;;;;;3.33;2.87;;;;;;;7.75;100.00;98091.70;1825055;77;21145;-81
2022/10/03 05:08:42;;;;;;;3.52;2.42;;;;;;;7.75;100.00;98089.05;1860414;75;21048;-80
2022/10/03 05:11:49;;;;;;;3.17;2.45;;;;;;;7.80;100.00;98088.47;1844372;75;21055;-81
2022/10/03 05:14:50;;;;;;;3.52;2.98;;;;;;;7.80;100.00;98087.15;1839239;75;21571;-80
2022/10/03 05:17:29;;;;;;;3.37;2.65;;;;;;;7.83;100.00;98090.75;1838488;77;20990;-80
2022/10/03 05:20:14;;;;;;;3.40;2.58;;;;;;;7.87;100.00;98087.52;1848791;77;21398;-82
2022/10/03 05:22:56;;;;;;;2.98;2.67;;;;;;;7.91;100.00;98093.25;1854666;77;21541;-81
2022/10/03 05:25:52;;;;;;;3.05;2.30;;;;;;;7.99;100.00;98087.00;1854238;76;21009;-81
2022/10/03 05:28:37;;;;;;;3.25;2.95;;;;;;;8.03;100.00;98085.60;1849788;77;20978;-81
2022/10/03 05:31:24;;;;;;;4.97;2.58;;;;;;;8.11;100.00;98093.90;1857467;76;20979;-80
2022/10/03 05:34:31;;;;;;;3.15;2.85;;;;;;;8.18;100.00;98096.09;1823461;77;21779;-80
2022/10/03 05:37:34;;;;;;;3.45;2.30;;;;;;;8.21;100.00;98101.02;1857818;75;20987;-80
2022/10/03 05:40:21;;;;;;;4.15;2.65;;;;;;;8.25;100.00;98081.09;1858482;77;20965;-82
2022/10/03 05:43:04;;;;;;;2.45;2.10;;;;;;;8.23;100.00;98091.86;1852259;75;21018;-76
2022/10/03 05:46:09;;;;;;;3.35;2.87;;;;;;;8.29;100.00;98088.95;1803334;77;21030;-77
2022/10/03 05:48:56;;;;;;;3.52;3.22;;;;;;;8.41;100.00;98095.36;1798237;78;21118;-74
2022/10/03 05:51:46;;;;;;;5.47;4.95;;;;;;;8.50;100.00;98095.19;1793452;80;21011;-76
2022/10/03 05:55:02;;;;;;;4.20;3.80;;;;;;;8.51;100.00;98093.68;1806964;77;21025;-79
2022/10/03 05:58:04;;;;;;;3.58;3.27;;;;;;;8.57;100.00;98103.99;1811558;78;21007;-76
2022/10/03 06:00:52;;;;;;;3.05;2.50;;;;;;;8.64;100.00;98086.33;1822375;78;21475;-78
2022/10/03 06:03:36;;;;;;;3.22;2.30;;;;;;;8.52;99.86;98100.63;1790270;77;21017;-77
2022/10/03 06:06:39;;;;;;;3.17;2.83;;;;;;;8.51;100.00;98081.77;1797737;78;20974;-78
2022/10/03 06:09:26;;;;;;;4.47;2.72;;;;;;;8.45;100.00;98084.69;1781508;79;21065;-78
2022/10/03 06:12:16;;;;;;;4.12;2.87;;;;;;;8.46;100.00;98100.89;1801318;77;21006;-76
2022/10/03 06:15:17;;;;;;;3.95;2.17;;;;;;;8.56;100.00;98085.98;1813776;77;20958;-78
2022/10/03 06:18:37;;;;;;;3.35;2.55;;;;;;;8.69;100.00;98088.37;1826655;78;21138;-76
2022/10/03 06:21:27;;;;;;;3.10;2.20;;;;;;;8.78;100.00;98094.63;1800106;77;21005;-78
2022/10/03 06:24:36;;;;;;;2.22;2.02;;;;;;;8.90;100.00;98102.02;1811022;78;21009;-77
2022/10/03 06:27:40;;;;;;;4.28;2.77;;;;;;;8.95;100.00;98103.06;1792897;77;20985;-77
2022/10/03 06:30:53;;;;;;;3.85;2.67;;;;;;;8.95;100.00;98109.69;1819561;77;21025;-77
2022/10/03 06:33:54;;;;;;;;;;;;;;;9.02;100.00;98107.05;1804069;77;21694;-76
2022/10/03 06:37:02;;;;;;;2.80;2.08;;;;;;;9.05;100.00;98110.64;1807852;78;20206;-76
2022/10/03 06:39:55;;;;;;;5.37;2.90;;;;;;;9.12;100.00;98110.16;1813089;77;21060;-76
2022/10/03 06:42:52;;;;;;;7.42;3.90;;;;;;;9.08;100.00;98130.12;1793817;78;20997;-77
2022/10/03 06:45:54;;;;;;;11.33;5.87;;;;;;;9.13;100.00;98126.34;1803210;77;21001;-77
2022/10/03 06:48:41;;;;;;;5.70;3.67;;;;;;;9.19;100.00;98128.72;1731009;82;21155;-78
2022/10/03 06:51:50;;;;;;;5.35;3.72;;;;;;;9.18;99.27;98132.40;1727032;81;21336;-78
2022/10/03 06:55:04;;;;;;;3.90;2.40;;;;;;;9.14;99.27;98128.00;1695282;84;21022;-77
2022/10/03 06:57:59;;;;;;;2.77;2.12;;;;;;;9.19;100.00;98149.42;1695703;82;21015;-78
2022/10/03 07:00:54;;;;;;;3.55;2.95;;;;;;;9.20;99.50;98149.72;1676413;85;21073;-77
2022/10/03 07:04:00;;;;;;;4.25;2.33;;;;;;;9.24;99.45;98138.22;1697446;83;21865;-77
2022/10/03 07:06:59;;;;;;;3.95;2.22;;;;;;;9.23;98.29;98151.98;1689709;84;21070;-77
2022/10/03 07:10:01;;;;;;;4.20;2.17;;;;;;;9.25;99.00;98137.19;1703820;83;21072;-76
2022/10/03 07:13:00;;;;;;;3.02;2.27;;;;;;;9.28;99.33;98149.25;1700617;83;21139;-75
2022/10/03 07:15:52;;;;;;;2.40;2.12;;;;;;;9.36;99.41;98140.59;1707161;83;21103;-77
2022/10/03 07:19:00;;;;;;;4.55;2.37;;;;;;;9.40;99.58;98152.95;1704269;84;21749;-75
2022/10/03 07:21:52;;;;;;;3.67;1.70;;;;;;;9.42;98.99;98150.39;1678864;84;21547;-72
2022/10/03 07:24:43;;;;;;;3.40;1.90;;;;;;;9.42;98.07;98148.26;1701874;84;21031;-75
2022/10/03 07:27:43;;;;;;;2.25;1.98;;;;;;;9.38;98.28;98145.70;1679350;82;21045;-75
2022/10/03 07:30:28;;;;;;;3.02;2.42;;;;;;;9.42;98.11;98141.12;1634392;86;21067;-73
2022/10/03 07:33:13;;;;;;;4.20;2.22;;;;;;;9.48;98.42;98139.50;1670237;84;21820;-76
2022/10/03 07:39:53;;;;;;;3.90;2.10;;;;;;;9.73;98.85;98133.13;1704123;84;21502;-77
2022/10/03 07:43:04;;;;;;;4.92;2.25;;;;;;;9.91;98.46;98128.58;1703754;84;21011;-77
2022/10/03 07:45:39;;;;;;;4.12;2.75;;;;;;;10.10;98.14;98128.77;1642829;87;21048;-75
2022/10/03 07:48:41;;;;;;;5.62;1.95;;;;;;;10.20;96.58;98127.87;1666989;84;21098;-76
2022/10/03 07:51:34;;;;;;;4.15;2.42;;;;;;;10.26;95.70;98130.19;1625183;86;21045;-76
2022/10/03 07:54:23;;;;;;;6.45;2.22;;;;;;;10.27;95.23;98126.00;1638121;87;21051;-75
2022/10/03 07:57:20;;;;;;;6.10;2.25;;;;;;;10.27;93.67;98123.35;1689237;84;21617;-75
2022/10/03 07:59:56;;;;;;;4.80;2.58;;;;;;;10.28;92.71;98134.28;1688289;84;21014;-77
2022/10/03 08:03:09;;;;;;;7.05;3.65;;;;;;;10.27;91.57;98127.33;1693598;84;21129;-77
2022/10/03 08:06:16;;;;;;;5.17;2.52;;;;;;;10.28;90.94;98121.02;1706129;83;21101;-75
2022/10/03 08:08:53;;;;;;;4.97;3.12;;;;;;;10.33;92.77;98115.91;1698402;83;21530;-75
2022/10/03 08:11:59;;;;;;;5.37;2.80;;;;;;;10.42;93.34;98115.20;1653755;86;21035;-77
2022/10/03 08:14:52;;;;;;;5.62;2.87;;;;;;;10.50;92.31;98116.83;1702159;84;21537;-77
2022/10/03 08:18:05;;;;;;;3.92;2.90;;;;;;;10.56;92.03;98102.19;1670106;85;21215;-78
2022/10/03 08:20:47;;;;;;;8.17;2.37;;;;;;;10.61;89.88;98114.87;1637855;85;21542;-77
2022/10/03 08:23:41;;;;;;;5.75;2.67;;;;;;;10.67;91.07;98104.73;1705340;84;20983;-79
2022/10/03 08:26:26;;;;;;;7.62;3.15;;;;;;;10.72;88.70;98120.87;1702807;84;21021;-76
2022/10/03 08:29:28;;;;;;;4.37;2.35;;;;;;;10.80;89.60;98128.60;1705744;83;21074;-79
2022/10/03 08:32:54;;;;;;;3.60;2.50;;;;;;;10.86;89.16;98126.14;1683615;84;21268;-79
2022/10/03 08:35:41;;;;;;;7.95;3.20;;;;;;;10.90;89.06;98122.84;1682296;84;21545;-77
2022/10/03 08:38:47;;;;;;;5.25;2.98;;;;;;;10.90;88.79;98136.13;1674771;85;21053;-75
2022/10/03 08:41:59;;;;;;;4.95;2.52;;;;;;;10.90;88.89;98122.84;1676317;85;21046;-76
2022/10/03 08:44:43;;;;;;;6.22;2.52;;;;;;;10.87;88.16;98134.40;1686668;84;21046;-75
2022/10/03 08:47:54;;;;;;;4.95;2.40;;;;;;;10.87;88.48;98144.51;1703165;84;21157;-76
2022/10/03 08:50:50;;;;;;;3.30;2.37;;;;;;;10.87;87.44;98133.87;1711062;82;21533;-78
2022/10/03 08:53:47;;;;;;;3.70;2.62;;;;;;;10.87;85.83;98136.53;1685226;82;21054;-77
2022/10/03 08:56:36;;;;;;;3.80;2.42;;;;;;;10.88;85.32;98143.50;1739415;82;21246;-77
2022/10/03 08:59:32;;;;;;;4.28;3.02;;;;;;;10.85;85.91;98149.73;1718121;82;21501;-77
2022/10/03 09:02:56;;;;;;;6.05;2.60;;;;;;;10.84;85.83;98136.97;1689263;84;21257;-75
2022/10/03 09:05:52;;;;;;;5.65;2.80;;;;;;;10.85;86.26;98152.39;1684731;84;21031;-75
2022/10/03 09:09:01;;;;;;;6.00;3.47;;;;;;;10.85;86.46;98155.05;1691155;84;21052;-77
2022/10/03 09:11:45;;;;;;;4.80;2.20;;;;;;;10.77;86.49;98168.04;1701229;83;21054;-79
2022/10/03 09:14:41;;;;;;;4.17;2.52;;;;;;;10.67;87.77;98146.41;1702617;84;21026;-78
2022/10/03 09:18:05;;;;;;;3.77;2.58;;;;;;;10.74;86.11;98163.13;1688920;83;21061;-76
2022/10/03 09:21:15;;;;;;;4.28;2.62;;;;;;;11.10;87.41;98150.66;1703380;84;20975;-78
2022/10/03 09:24:04;;;;;;;4.33;2.17;;;;;;;11.60;87.47;98130.89;1703300;84;21031;-78
2022/10/03 09:27:15;;;;;;;3.12;2.60;;;;;;;12.03;82.52;98137.91;1699117;83;21013;-76
2022/10/03 09:30:13;;;;;;;4.90;2.25;;;;;;;12.27;81.83;98150.94;1699132;84;21033;-76
2022/10/03 09:33:13;;;;;;;4.47;2.25;;;;;;;12.47;78.67;98127.58;1700441;83;21607;-76
2022/10/03 09:36:03;;;;;;;3.85;2.35;;;;;;;12.59;76.47;98165.80;1697835;83;21063;-77
2022/10/03 09:39:21;;;;;;;3.77;2.20;;;;;;;12.85;77.69;98147.10;1700703;82;21129;-77
2022/10/03 09:42:19;;;;;;;4.42;2.30;;;;;;;13.02;74.04;98145.47;1699385;83;21058;-78
2022/10/03 09:45:23;;;;;;;3.25;2.12;;;;;;;13.03;75.91;98148.94;1695900;84;21042;-78
2022/10/03 09:48:15;;;;;;;3.15;2.08;;;;;;;13.07;72.97;98144.27;1686578;83;21155;-77
2022/10/03 09:51:14;;;;;;;3.27;2.10;;;;;;;13.01;73.91;98150.49;1698970;84;21055;-79
2022/10/03 09:54:21;;;;;;;3.70;2.20;;;;;;;13.04;75.12;98142.06;1694386;83;21026;-78
2022/10/03 09:57:22;;;;;;;4.47;2.25;;;;;;;13.15;75.68;98145.31;1666365;85;21022;-76
2022/10/03 10:00:23;;;;;;;5.33;2.20;;;;;;;13.32;74.30;98138.05;1690978;82;21639;-75
2022/10/03 10:03:22;;;;;;;3.90;2.30;;;;;;;13.37;74.62;98147.54;1703815;84;21240;-76
2022/10/03 10:06:28;;;;;;;5.22;2.08;;;;;;;13.53;72.44;98174.11;1703505;83;21062;-77
2022/10/03 10:09:36;;;;;;;3.50;1.87;;;;;;;13.62;72.65;98148.74;1696742;83;20991;-74
2022/10/03 10:12:43;;;;;;;2.60;1.90;;;;;;;13.66;73.43;98161.11;1690653;84;21170;-75
2022/10/03 10:15:41;;;;;;;2.65;2.12;;;;;;;13.71;71.57;98163.40;1696436;83;21062;-74
2022/10/03 10:18:35;;;;;;;2.70;1.87;;;;;;;13.55;71.13;98166.16;1689935;83;21507;-75
2022/10/03 10:21:31;;;;;;;2.90;2.00;;;;;;;13.44;71.60;98157.58;1648656;86;21114;-76
2022/10/03 10:24:29;;;;;;;3.50;2.20;;;;;;;13.32;71.03;98165.53;1625576;87;21066;-75
2022/10/03 10:27:25;;;;;;;4.67;2.05;;;;;;;13.08;71.05;98163.77;1657377;84;21096;-76
2022/10/03 10:30:24;;;;;;;3.02;1.87;;;;;;;12.89;71.09;98171.74;1704912;82;21145;-76
2022/10/03 10:33:48;;;;;;;4.58;2.05;;;;;;;12.72;70.74;98183.48;1693341;83;21228;-76
2022/10/03 10:37:01;;;;;;;2.87;1.95;;;;;;;12.50;70.76;98187.09;1692282;83;21095;-76
2022/10/03 10:40:25;;;;;;;3.98;1.62;;;;;;;12.50;70.76;98187.09;1683175;84;21000;-75
2022/10/03 10:43:30;;;;;;;5.05;2.20;;;;;;;12.33;70.91;98200.13;1618286;88;21093;-74
2022/10/03 10:46:35;;;;;;;5.35;2.02;;;;;;;12.34;71.70;98157.83;1700882;84;21101;-75
2022/10/03 10:49:37;;;;;;;2.58;1.98;;;;;;;12.29;71.91;98168.31;1646332;85;21130;-75
2022/10/03 10:52:32;;;;;;;3.37;2.05;;;;;;;12.20;72.94;98178.92;1663282;85;21235;-76
2022/10/03 10:55:29;;;;;;;4.83;2.00;;;;;;;12.30;73.35;98182.44;1673890;85;21086;-76
2022/10/03 10:58:31;;;;;;;5.08;2.58;;;;;;;12.37;73.72;98172.55;1709054;83;21597;-77
2022/10/03 11:01:31;;;;;;;3.55;2.33;;;;;;;12.37;73.34;98180.54;1668757;82;21038;-77
2022/10/03 11:04:42;;;;;;;5.00;1.85;;;;;;;12.30;73.44;98187.76;1708530;84;21133;-76
2022/10/03 11:07:42;;;;;;;2.65;1.70;;;;;;;12.42;73.67;98186.53;1700066;84;21011;-77
2022/10/03 11:10:34;;;;;;;2.92;1.82;;;;;;;12.47;72.93;98176.86;1632521;86;21534;-77
2022/10/03 11:13:57;;;;;;;2.70;1.65;;;;;;;12.70;73.87;98176.23;1627347;86;21022;-76
2022/10/03 11:17:04;;;;;;;1.87;1.55;;;;;;;12.84;72.36;98190.23;1652455;86;21066;-77
2022/10/03 11:20:01;;;;;;;3.27;1.45;;;;;;;13.33;71.28;98182.37;1636154;85;21076;-77
2022/10/03 11:23:11;;;;;;;3.22;1.77;;;;;;;13.84;69.46;98170.38;1679674;82;21101;-76
2022/10/03 11:26:05;;;;;;;2.70;1.67;;;;;;;14.00;68.21;98178.78;1708668;83;20991;-77
2022/10/03 11:28:56;;;;;;;2.33;1.62;;;;;;;13.88;68.37;98173.41;1703068;83;21069;-78
2022/10/03 11:32:04;;;;;;;3.35;1.82;;;;;;;13.60;68.87;98179.34;1710005;82;21601;-81
2022/10/03 11:34:39;;;;;;;3.08;1.90;;;;;;;13.37;70.10;98180.34;1699034;82;21268;-76
2022/10/03 11:37:26;;;;;;;4.33;2.90;;;;;;;13.44;71.93;98181.59;1703700;83;21041;-76
2022/10/03 11:40:22;;;;;;;3.55;1.72;;;;;;;13.50;71.53;98160.70;1678573;84;21018;-75
2022/10/03 11:43:03;;;;;;;2.60;1.75;;;;;;;13.57;70.58;98174.75;1706417;83;21096;-75
2022/10/03 11:45:38;;;;;;;4.00;2.08;;;;;;;13.65;70.65;98168.81;1707986;84;21017;-77
2022/10/03 11:48:39;;;;;;;2.65;2.08;;;;;;;13.68;69.64;98176.38;1687956;83;21259;-74
2022/10/03 11:51:20;;;;;;;3.55;2.05;;;;;;;13.69;69.77;98178.80;1701074;82;21054;-74
2022/10/03 11:53:57;;;;;;;7.00;2.47;;;;;;;13.79;69.65;98166.27;1691371;84;21030;-72
2022/10/03 11:56:44;;;;;;;2.95;2.05;;;;;;;13.93;69.52;98174.36;1686449;84;22122;-74
2022/10/03 11:59:36;;;;;;;5.12;2.87;;;;;;;14.01;68.98;98181.76;1665295;83;21003;-74
2022/10/03 12:02:23;;;;;;;6.00;2.33;;;;;;;13.94;68.07;98179.17;1699713;83;21329;-74
2022/10/03 12:05:01;;;;;;;3.90;2.08;;;;;;;13.70;68.89;98183.11;1663420;84;21022;-74
2022/10/03 12:10:45;;;;;;;2.83;1.95;;;;;;;13.66;69.83;98204.61;1702188;83;21526;-74
2022/10/03 12:13:19;;;;;;;4.50;2.00;;;;;;;13.79;69.02;98192.13;1699054;83;21061;-74
2022/10/03 12:15:50;;;;;;;7.08;2.30;;;;;;;13.75;69.58;98202.43;1684288;84;21730;-74
2022/10/03 12:18:43;;;;;;;2.92;1.80;;;;;;;13.67;69.42;98187.55;1677814;84;21569;-74
2022/10/03 12:21:21;;;;;;;3.90;2.55;;;;;;;13.52;69.87;98181.30;1694954;82;22119;-75
2022/10/03 12:24:27;;;;;;;3.02;1.50;;;;;;;13.39;70.62;98184.13;1691654;84;21070;-76
2022/10/03 12:27:46;;;;;;;6.37;1.90;;;;;;;13.32;70.29;98181.53;1697153;82;21598;-75
2022/10/03 12:30:15;;;;;;;4.28;2.50;;;;;;;13.31;70.47;98188.45;1690573;83;21743;-76
2022/10/03 12:32:48;;;;;;;4.78;2.20;;;;;;;13.15;70.30;98195.14;1694829;83;21074;-76
2022/10/03 12:36:01;;;;;;;4.20;2.00;;;;;;;12.98;70.76;98194.41;1696264;84;27000;-76
2022/10/03 12:39:02;;;;;;;4.70;2.33;;;;;;;12.82;70.79;98212.30;1698972;82;21089;-76
2022/10/03 12:42:11;;;;;;;3.47;1.98;;;;;;;12.69;73.53;98197.27;1693511;84;21104;-76
2022/10/03 12:45:02;;;;;;;3.62;2.10;;;;;;;12.61;74.86;98198.86;1695439;82;22089;-77
2022/10/03 12:48:15;;;;;;;2.90;1.72;;;;;;;12.27;75.97;98210.31;1694966;84;22084;-76
2022/10/03 12:51:19;;;;;;;6.33;2.20;;;;;;;12.03;77.58;98217.23;1687221;84;21046;-76
2022/10/03 12:53:57;;;;;;;2.70;2.08;;;;;;;12.05;77.07;98215.16;1662148;85;21063;-77
2022/10/03 12:56:47;;;;;;;3.08;1.52;;;;;;;12.02;77.21;98194.84;1693309;83;21121;-79
2022/10/03 12:59:32;;;;;;;9.20;2.67;;;;;;;11.95;77.26;98203.66;1666503;83;22004;-79
2022/10/03 13:02:24;;;;;;;3.27;2.17;;;;;;;12.03;76.46;98183.95;1702249;82;21103;-79
2022/10/03 13:05:18;;;;;;;3.77;1.95;;;;;;;12.02;76.93;98182.86;1693929;84;21042;-76
2022/10/03 13:08:16;;;;;;;3.65;1.70;;;;;;;12.08;77.10;98190.79;1640085;86;21062;-79
2022/10/03 13:10:47;;;;;;;2.77;2.12;;;;;;;12.19;76.79;98186.63;1689854;82;21026;-75
2022/10/03 13:13:34;;;;;;;3.58;1.98;;;;;;;12.18;76.39;98187.64;1684620;84;21152;-76
2022/10/03 13:16:24;;;;;;;4.97;2.25;;;;;;;12.25;76.37;98193.75;1673020;83;21037;-77
2022/10/03 13:19:19;;;;;;;8.85;2.75;;;;;;;12.23;76.54;98190.48;1697607;84;21022;-82
2022/10/03 13:22:07;;;;;;;4.45;2.47;;;;;;;12.14;76.94;98196.58;1697786;82;21127;-76
2022/10/03 13:25:08;;;;;;;3.17;2.08;;;;;;;12.11;76.62;98196.19;1696669;83;21744;-76
2022/10/03 13:27:40;;;;;;;4.53;2.17;;;;;;;12.07;77.80;98179.02;1669044;84;21955;-76
2022/10/03 13:30:31;;;;;;;3.95;1.90;;;;;;;11.67;81.11;98197.36;1661821;85;21063;-76
2022/10/03 13:33:17;;;;;;;5.22;2.20;;;;;;;11.40;82.17;98203.33;1641840;86;21133;-77
2022/10/03 13:35:58;;;;;;;4.37;2.30;;;;;;;11.18;83.93;98190.81;1647019;86;21058;-75
2022/10/03 13:39:09;;;;;;;1.87;1.50;;;;;;;10.96;82.22;98193.74;1646540;85;21134;-77
2022/10/03 13:41:48;;;;;;;2.90;1.95;;;;;;;10.92;81.65;98202.34;1643225;85;21876;-75
2022/10/03 13:44:18;;;;;;;4.08;1.80;;;;;;;10.96;81.20;98199.58;1698593;83;21105;-75
2022/10/03 13:46:53;;;;;;;4.37;1.90;;;;;;;10.94;81.01;98191.80;1695644;84;21097;-75
2022/10/03 13:49:31;;;;;;;4.45;2.12;;;;;;;10.94;81.22;98181.70;1702111;84;20998;-77
2022/10/03 13:52:04;;;;;;;2.72;1.60;;;;;;;11.03;81.07;98195.07;1698565;83;21049;-77
2022/10/03 13:55:09;;;;;;;4.55;1.82;;;;;;;11.02;81.19;98189.44;1702667;83;21226;-76
2022/10/03 13:57:54;;;;;;;2.67;1.87;;;;;;;11.09;80.74;98217.34;1668276;84;21568;-75